Time;durP1;ratioP1;P1;durP2;ratioP2;P2;SDS_P1;SDS_P2;PMS_P1;PMS_P2;Temp;Humidity;BMP_temperature;BMP_pressure;BME280_temperature;BME280_humidity;BME280_pressure;Samples;Min_cycle;Max_cycle;Signal;HPM_P1;HPM_P2
2023/02/19 00:01:09;;;;;;;12.60;8.30;;;;;;;11.64;54.78;99835.91;108147;1286;21985;-67
2023/02/19 00:03:39;;;;;;;14.40;9.10;;;;;;;11.62;55.07;99833.51;108093;1287;21999;-63
2023/02/19 00:06:07;;;;;;;12.40;9.40;;;;;;;11.58;55.92;99825.86;108142;1288;21987;-67
2023/02/19 00:08:33;;;;;;;12.50;8.80;;;;;;;11.56;56.07;99813.08;108149;1288;22466;-63
2023/02/19 00:11:05;;;;;;;11.10;8.30;;;;;;;11.57;55.96;99818.52;108203;1288;21988;-63
2023/02/19 00:13:36;;;;;;;12.30;8.20;;;;;;;11.56;55.51;99815.36;108189;1287;21996;-63
2023/02/19 00:16:12;;;;;;;13.60;8.80;;;;;;;11.56;55.61;99828.89;108122;1287;21987;-67
2023/02/19 00:18:40;;;;;;;13.00;8.20;;;;;;;11.54;55.74;99837.21;108001;1288;21992;-67
2023/02/19 00:21:06;;;;;;;11.80;8.30;;;;;;;11.52;55.65;99839.73;108153;1286;21986;-67
2023/02/19 00:23:32;;;;;;;11.90;9.20;;;;;;;11.52;55.60;99836.92;108183;1286;21979;-66
2023/02/19 00:26:06;;;;;;;12.70;8.80;;;;;;;11.52;55.44;99833.74;107324;1286;1003099;-67
2023/02/19 00:28:34;;;;;;;13.40;8.70;;;;;;;11.56;56.71;99827.14;108114;1286;23049;-63
2023/02/19 00:31:04;;;;;;;12.20;8.30;;;;;;;11.57;56.36;99834.31;108154;1286;22092;-63
2023/02/19 00:33:32;;;;;;;11.70;7.40;;;;;;;11.59;56.39;99831.80;108190;1281;23039;-67
2023/02/19 00:36:02;;;;;;;9.50;7.10;;;;;;;11.62;56.89;99846.52;108098;1287;21982;-66
2023/02/19 00:38:28;;;;;;;10.90;7.50;;;;;;;11.70;56.51;99845.95;108004;1287;22028;-62
2023/02/19 00:40:54;;;;;;;10.00;7.60;;;;;;;11.78;56.15;99834.14;108178;1287;21980;-63
2023/02/19 00:43:21;;;;;;;9.90;7.00;;;;;;;11.85;56.63;99823.25;108099;1287;21991;-63
2023/02/19 00:45:48;;;;;;;9.60;7.00;;;;;;;11.91;57.03;99821.16;108177;1287;21995;-68
2023/02/19 00:48:14;;;;;;;9.60;6.60;;;;;;;11.97;57.99;99817.65;108157;1287;21988;-62
2023/02/19 00:50:41;;;;;;;10.40;6.90;;;;;;;12.06;56.86;99813.92;108238;1287;21992;-67
2023/02/19 00:53:07;;;;;;;11.60;7.70;;;;;;;12.10;56.38;99808.91;108167;1286;21972;-70
2023/02/19 00:55:33;;;;;;;10.90;7.80;;;;;;;12.10;56.27;99812.77;108173;1286;21991;-61
2023/02/19 00:57:59;;;;;;;12.40;7.40;;;;;;;12.10;56.43;99808.36;108131;1286;21983;-75
2023/02/19 01:00:25;;;;;;;9.50;6.10;;;;;;;12.10;56.51;99804.32;108145;1286;21983;-61
2023/02/19 01:02:51;;;;;;;9.90;6.60;;;;;;;12.10;56.65;99809.60;108225;1286;22036;-74
2023/02/19 01:05:17;;;;;;;11.10;7.90;;;;;;;12.10;57.52;99803.10;108227;1287;21996;-61
2023/02/19 01:07:44;;;;;;;10.60;7.20;;;;;;;12.12;56.64;99793.73;108023;1287;22001;-73
2023/02/19 01:10:10;;;;;;;9.60;7.20;;;;;;;12.14;56.51;99796.64;108125;1287;21990;-73
2023/02/19 01:12:37;;;;;;;10.30;6.20;;;;;;;12.13;56.61;99788.42;108157;1287;21989;-61
2023/02/19 01:15:03;;;;;;;10.30;6.60;;;;;;;12.11;56.52;99782.31;108172;1287;21989;-69
2023/02/19 01:17:30;;;;;;;10.20;6.20;;;;;;;12.10;56.40;99779.35;108138;1288;21996;-61
2023/02/19 01:19:56;;;;;;;11.20;7.10;;;;;;;12.11;56.58;99777.40;108122;1287;21989;-61
2023/02/19 01:22:22;;;;;;;9.10;6.70;;;;;;;12.10;56.68;99771.45;108090;1288;21996;-74
2023/02/19 01:24:47;;;;;;;9.90;6.50;;;;;;;12.07;56.69;99773.80;108093;1288;21996;-64
2023/02/19 01:27:13;;;;;;;10.50;7.10;;;;;;;12.03;56.83;99770.40;108128;1287;21986;-61
2023/02/19 01:29:39;;;;;;;9.40;6.70;;;;;;;12.01;56.99;99771.31;108147;1287;22888;-74
2023/02/19 01:32:06;;;;;;;9.60;6.90;;;;;;;12.01;57.13;99770.45;108109;1287;21983;-74
2023/02/19 01:34:34;;;;;;;10.10;7.40;;;;;;;11.97;57.40;99764.73;108106;1287;21988;-61
2023/02/19 01:37:01;;;;;;;10.80;6.90;;;;;;;11.93;57.60;99769.23;108134;1287;22453;-60
2023/02/19 01:39:27;;;;;;;9.20;6.50;;;;;;;11.90;57.54;99775.84;108097;1288;21989;-74
2023/02/19 01:41:53;;;;;;;10.20;6.70;;;;;;;11.91;57.48;99774.23;108118;1287;21994;-74
2023/02/19 01:44:19;;;;;;;9.30;6.40;;;;;;;11.91;57.62;99777.21;108116;1287;21989;-75
2023/02/19 01:46:47;;;;;;;11.10;6.70;;;;;;;11.89;58.26;99775.84;108174;1287;21987;-60
2023/02/19 01:49:23;;;;;;;12.20;7.10;;;;;;;11.87;58.83;99777.66;108128;1286;21991;-64
2023/02/19 01:51:54;;;;;;;12.90;7.20;;;;;;;11.84;58.90;99779.69;108127;1288;22024;-60
2023/02/19 01:54:20;;;;;;;10.00;6.70;;;;;;;11.81;58.76;99773.98;107870;1287;22002;-60
2023/02/19 01:56:48;;;;;;;11.00;7.20;;;;;;;11.74;59.17;99766.92;108108;1286;21983;-60
2023/02/19 01:59:14;;;;;;;9.80;6.30;;;;;;;11.65;59.34;99764.70;108153;1286;22009;-61
2023/02/19 02:01:40;;;;;;;8.70;6.20;;;;;;;11.62;59.52;99761.27;108024;1287;21998;-61
2023/02/19 02:04:07;;;;;;;9.80;6.80;;;;;;;11.61;59.77;99761.48;107344;1287;1002853;-74
2023/02/19 02:06:48;;;;;;;9.60;7.40;;;;;;;11.57;59.64;99754.89;108149;1286;21994;-72
2023/02/19 02:12:00;;;;;;;9.90;7.00;;;;;;;11.58;59.44;99754.16;108190;1287;22007;-59
2023/02/19 02:14:28;;;;;;;8.10;5.80;;;;;;;11.63;59.46;99754.77;108231;1287;22042;-72
2023/02/19 02:17:00;;;;;;;9.50;7.00;;;;;;;11.66;59.38;99751.86;108119;1287;21986;-72
2023/02/19 02:19:38;;;;;;;11.10;6.60;;;;;;;11.69;59.38;99748.44;108250;1287;21989;-72
2023/02/19 02:22:21;;;;;;;9.90;6.60;;;;;;;11.71;59.42;99747.67;108135;1287;21980;-59
2023/02/19 02:25:36;;;;;;;11.00;6.70;;;;;;;11.72;59.47;99743.79;108136;1287;21991;-72
2023/02/19 02:28:29;;;;;;;8.90;6.20;;;;;;;11.71;59.30;99743.64;108018;1287;21983;-71
2023/02/19 02:30:56;;;;;;;8.50;5.50;;;;;;;11.71;59.41;99742.77;108200;1287;21984;-72
2023/02/19 02:33:38;;;;;;;9.70;5.60;;;;;;;11.71;59.47;99744.67;108324;1287;23132;-73
2023/02/19 02:36:06;;;;;;;8.10;5.10;;;;;;;11.73;59.42;99744.61;108145;1287;21974;-72
2023/02/19 02:38:35;;;;;;;9.70;5.90;;;;;;;11.71;59.43;99749.08;108023;1287;22052;-59
2023/02/19 02:41:00;;;;;;;10.00;6.30;;;;;;;11.70;59.51;99746.64;108039;1286;21993;-58
2023/02/19 02:43:26;;;;;;;10.80;7.10;;;;;;;11.71;59.57;99746.95;107991;1287;22026;-71
2023/02/19 02:45:52;;;;;;;15.10;8.90;;;;;;;11.69;59.78;99729.30;108138;1287;21984;-73
2023/02/19 02:48:37;;;;;;;13.20;8.10;;;;;;;11.64;59.73;99737.50;108145;1286;21982;-59
2023/02/19 02:51:18;;;;;;;9.60;6.40;;;;;;;11.66;59.44;99735.36;107409;1286;1002432;-58
2023/02/19 02:56:33;;;;;;;9.90;6.20;;;;;;;11.70;59.14;99736.98;108156;1286;21982;-63
2023/02/19 02:59:00;;;;;;;12.10;6.90;;;;;;;11.70;59.27;99747.88;108220;1286;21996;-58
2023/02/19 03:07:54;;;;;;;23.40;14.10;;;;;;;11.63;59.35;99753.88;107894;1286;22749;-73
2023/02/19 03:10:24;;;;;;;18.80;11.50;;;;;;;11.59;59.33;99759.25;108156;1287;22018;-59
2023/02/19 03:21:08;;;;;;;9.30;6.40;;;;;;;11.54;59.65;99757.44;108087;1287;21983;-72
2023/02/19 03:26:19;;;;;;;9.90;6.70;;;;;;;11.59;59.47;99768.22;108062;1286;21991;-72
2023/02/19 03:31:33;;;;;;;8.30;5.60;;;;;;;11.59;59.26;99790.52;108090;1287;21989;-72
2023/02/19 03:34:01;;;;;;;10.30;6.10;;;;;;;11.57;59.11;99798.66;108131;1287;22020;-72
2023/02/19 03:36:32;;;;;;;6.10;4.80;;;;;;;11.53;58.95;99801.38;107960;1287;22099;-59
2023/02/19 03:39:02;;;;;;;9.00;6.30;;;;;;;11.50;59.18;99801.27;108106;1287;21985;-60
2023/02/19 03:41:39;;;;;;;12.90;8.00;;;;;;;11.49;59.15;99808.88;108150;1287;21982;-63
2023/02/19 03:44:27;;;;;;;13.50;7.90;;;;;;;11.47;59.03;99814.20;108120;1287;22089;-72
2023/02/19 03:46:55;;;;;;;10.10;7.00;;;;;;;11.44;58.77;99818.13;108152;1287;21991;-59
2023/02/19 03:49:28;;;;;;;6.60;4.80;;;;;;;11.40;58.55;99822.80;108145;1287;21988;-71
2023/02/19 03:52:06;;;;;;;9.60;6.30;;;;;;;11.34;58.45;99835.23;108239;1287;22024;-72
2023/02/19 03:54:45;;;;;;;8.60;5.30;;;;;;;11.29;58.69;99840.63;108119;1287;21989;-59
2023/02/19 03:58:02;;;;;;;9.30;6.40;;;;;;;11.25;58.69;99837.05;108107;1287;22021;-72
2023/02/19 04:00:48;;;;;;;12.90;9.30;;;;;;;11.21;58.71;99835.73;107770;1287;22000;-59
2023/02/19 04:03:24;;;;;;;10.90;8.00;;;;;;;11.19;58.95;99839.80;108147;1286;21983;-71
2023/02/19 04:05:54;;;;;;;12.10;8.80;;;;;;;11.17;58.95;99836.00;108145;1286;22021;-59
2023/02/19 04:08:22;;;;;;;11.40;8.10;;;;;;;11.14;58.91;99845.38;108043;1288;22046;-59
2023/02/19 04:10:48;;;;;;;8.60;6.80;;;;;;;11.11;59.33;99850.01;108004;1287;21989;-59
2023/02/19 04:13:25;;;;;;;9.50;6.50;;;;;;;11.08;59.62;99863.05;108055;1286;22310;-59
2023/02/19 04:15:52;;;;;;;9.80;7.50;;;;;;;11.04;59.35;99877.02;107871;1281;21987;-59
2023/02/19 04:18:22;;;;;;;8.30;6.70;;;;;;;10.98;59.55;99886.63;108133;1287;22004;-70
2023/02/19 04:20:48;;;;;;;8.40;6.80;;;;;;;10.94;59.51;99892.52;108151;1286;21995;-59
2023/02/19 04:23:16;;;;;;;9.70;7.20;;;;;;;10.91;59.65;99895.73;108122;1286;21986;-59
2023/02/19 04:25:44;;;;;;;11.00;8.10;;;;;;;10.92;59.91;99901.67;108176;1287;21995;-71
2023/02/19 04:28:12;;;;;;;10.50;7.20;;;;;;;10.92;59.83;99902.04;108088;1283;22607;-72
2023/02/19 04:30:38;;;;;;;11.60;8.40;;;;;;;10.90;59.96;99903.65;107330;1286;1003210;-72
2023/02/19 04:33:04;;;;;;;9.60;6.80;;;;;;;10.92;60.08;99910.98;108100;1286;21977;-59
2023/02/19 04:35:30;;;;;;;10.20;6.30;;;;;;;10.96;60.19;99916.00;108088;1286;22020;-72
2023/02/19 04:37:56;;;;;;;8.80;5.30;;;;;;;10.99;60.22;99927.16;108069;1287;21989;-72
2023/02/19 04:40:21;;;;;;;12.30;6.80;;;;;;;10.97;60.06;99927.04;108057;1287;21993;-72
2023/02/19 04:42:49;;;;;;;10.40;5.80;;;;;;;10.82;60.63;99928.05;108088;1287;21987;-60
2023/02/19 04:45:15;;;;;;;9.30;6.40;;;;;;;10.78;61.05;99931.80;108116;1287;21992;-59
2023/02/19 04:47:41;;;;;;;8.50;5.70;;;;;;;10.79;61.02;99931.79;108134;1287;22064;-71
2023/02/19 04:50:07;;;;;;;9.30;5.70;;;;;;;10.81;61.25;99930.00;108103;1284;21998;-59
2023/02/19 04:52:34;;;;;;;8.20;4.80;;;;;;;10.92;60.89;99940.98;108096;1286;21991;-71
2023/02/19 04:55:00;;;;;;;8.30;5.10;;;;;;;10.93;60.23;99942.90;107911;1287;22040;-71
2023/02/19 04:57:27;;;;;;;11.40;5.70;;;;;;;10.91;60.43;99941.36;108133;1287;21996;-59
2023/02/19 04:59:52;;;;;;;9.90;5.70;;;;;;;10.91;60.45;99929.95;108108;1287;22742;-59
2023/02/19 05:02:18;;;;;;;11.90;6.70;;;;;;;10.93;60.59;99925.17;108162;1287;22008;-71
2023/02/19 05:04:44;;;;;;;12.00;5.80;;;;;;;10.92;60.51;99914.48;108123;1287;21993;-70
2023/02/19 05:07:10;;;;;;;33.70;6.80;;;;;;;10.91;60.59;99916.64;108134;1287;21991;-60
2023/02/19 05:09:36;;;;;;;9.00;5.30;;;;;;;10.87;60.49;99908.98;108052;1287;22000;-59
2023/02/19 05:12:02;;;;;;;11.50;5.50;;;;;;;10.85;60.42;99907.26;108153;1287;21980;-60
2023/02/19 05:14:29;;;;;;;8.20;5.10;;;;;;;10.84;60.23;99905.86;108158;1287;21993;-69
2023/02/19 05:16:56;;;;;;;9.60;5.40;;;;;;;10.83;59.99;99915.04;108108;1287;21991;-59
2023/02/19 05:19:21;;;;;;;11.40;6.00;;;;;;;10.77;59.44;99920.08;108166;1287;22454;-59
2023/02/19 05:21:47;;;;;;;8.30;5.00;;;;;;;10.71;59.37;99924.77;108146;1287;21991;-69
2023/02/19 05:24:13;;;;;;;11.30;5.20;;;;;;;10.65;59.08;99924.52;107388;1287;1003392;-68
2023/02/19 05:26:39;;;;;;;13.20;5.30;;;;;;;10.58;59.16;99927.63;108217;1287;21980;-60
2023/02/19 05:29:04;;;;;;;10.80;5.20;;;;;;;10.53;58.97;99930.02;108152;1287;21982;-68
2023/02/19 05:31:32;;;;;;;9.20;5.40;;;;;;;10.46;59.03;99943.30;108103;1288;21994;-69
2023/02/19 05:33:58;;;;;;;16.00;5.30;;;;;;;10.37;59.01;99951.87;108201;1287;21984;-59
2023/02/19 05:36:24;;;;;;;9.30;4.90;;;;;;;10.33;59.08;99959.13;107899;1288;21988;-69
2023/02/19 05:38:54;;;;;;;9.50;4.60;;;;;;;10.32;59.41;99971.94;108127;1286;21953;-70
2023/02/19 05:41:27;;;;;;;9.70;4.20;;;;;;;10.30;59.60;99977.23;108096;1287;21997;-60
2023/02/19 05:43:54;;;;;;;7.10;4.80;;;;;;;10.27;59.65;99970.61;108123;1287;21989;-61
2023/02/19 05:46:22;;;;;;;5.10;3.40;;;;;;;10.25;59.93;99977.16;108122;1286;22042;-60
2023/02/19 05:48:48;;;;;;;8.10;3.30;;;;;;;10.24;60.05;99986.80;108154;1287;21990;-61
2023/02/19 05:51:15;;;;;;;6.10;2.80;;;;;;;10.24;60.07;100006.11;108134;1286;22025;-60
2023/02/19 05:53:42;;;;;;;6.00;3.50;;;;;;;10.25;60.51;100015.36;108192;1287;21984;-70
2023/02/19 05:56:33;;;;;;;7.20;3.90;;;;;;;10.28;60.80;100020.76;108168;1287;23264;-60
2023/02/19 05:59:00;;;;;;;9.30;4.10;;;;;;;10.29;61.66;100023.21;108192;1287;22818;-60
2023/02/19 06:01:27;;;;;;;5.70;3.60;;;;;;;10.27;62.33;100029.35;108206;1287;21985;-60
2023/02/19 06:03:53;;;;;;;5.70;3.50;;;;;;;10.25;62.97;100029.39;108171;1287;22000;-61
2023/02/19 06:06:20;;;;;;;6.10;3.80;;;;;;;10.22;63.86;100034.52;108266;1276;21988;-60
2023/02/19 06:08:49;;;;;;;5.80;3.30;;;;;;;10.22;63.55;100038.56;108266;1287;23657;-60
2023/02/19 06:11:16;;;;;;;7.30;3.80;;;;;;;10.22;64.06;100037.50;108139;1287;23704;-60
2023/02/19 06:13:43;;;;;;;6.50;3.10;;;;;;;10.24;63.56;100039.76;108160;1287;23644;-69
2023/02/19 06:16:11;;;;;;;5.80;3.00;;;;;;;10.30;63.55;100052.98;108132;1287;21993;-69
2023/02/19 06:18:39;;;;;;;4.30;2.20;;;;;;;10.32;63.92;100057.88;108191;1284;21987;-60
2023/02/19 06:21:06;;;;;;;6.90;3.10;;;;;;;10.33;64.54;100067.33;108144;1287;21990;-60
2023/02/19 06:23:32;;;;;;;4.50;2.50;;;;;;;10.27;65.22;100071.27;108116;1286;21979;-61
2023/02/19 06:26:27;;;;;;;5.00;2.20;;;;;;;10.29;65.38;100075.80;108109;1286;22093;-60
2023/02/19 06:28:54;;;;;;;6.10;2.20;;;;;;;10.34;65.24;100071.53;107963;1286;21992;-60
2023/02/19 06:31:21;;;;;;;3.80;2.00;;;;;;;10.39;65.53;100073.39;108063;1286;22484;-69
2023/02/19 06:33:49;;;;;;;5.90;2.10;;;;;;;10.45;65.25;100072.95;108081;1286;22196;-69
2023/02/19 06:36:17;;;;;;;5.40;2.00;;;;;;;10.53;65.34;100073.52;108075;1283;23085;-61
2023/02/19 06:38:43;;;;;;;5.40;1.90;;;;;;;10.60;65.52;100073.75;108106;1286;21980;-69
2023/02/19 06:41:09;;;;;;;6.50;2.10;;;;;;;10.66;65.54;100073.11;108084;1286;22171;-60
2023/02/19 06:43:38;;;;;;;5.20;2.60;;;;;;;10.73;65.53;100074.92;108101;1286;22005;-70
2023/02/19 06:46:05;;;;;;;5.70;2.20;;;;;;;10.77;67.25;100080.31;106953;1286;1002544;-70
2023/02/19 06:48:31;;;;;;;5.40;2.30;;;;;;;10.78;66.89;100081.51;108141;1286;21989;-69
2023/02/19 06:50:57;;;;;;;7.60;3.30;;;;;;;10.79;67.93;100081.15;108116;1286;21980;-61
2023/02/19 06:53:24;;;;;;;4.50;2.40;;;;;;;10.82;67.78;100085.48;108083;1286;21995;-69
2023/02/19 06:55:59;;;;;;;8.10;2.50;;;;;;;10.89;67.68;100079.03;108030;1286;21992;-69
2023/02/19 06:58:25;;;;;;;6.60;2.40;;;;;;;10.94;67.45;100068.05;108041;1283;21988;-69
2023/02/19 07:00:51;;;;;;;6.90;3.30;;;;;;;11.01;67.16;100072.15;108009;1286;21993;-60
2023/02/19 07:03:19;;;;;;;5.90;2.40;;;;;;;11.05;67.92;100085.06;108101;1287;22003;-59
2023/02/19 07:05:47;;;;;;;4.50;2.00;;;;;;;11.11;67.32;100098.27;108059;1286;22025;-59
2023/02/19 07:08:18;;;;;;;2.50;1.50;;;;;;;11.14;67.07;100105.94;108057;1286;22079;-59
2023/02/19 07:10:45;;;;;;;3.90;1.60;;;;;;;11.14;68.00;100109.63;108143;1284;22023;-59
2023/02/19 07:13:11;;;;;;;4.10;1.80;;;;;;;11.17;67.44;100110.64;108087;1286;21991;-59
2023/02/19 07:15:36;;;;;;;3.80;1.90;;;;;;;11.19;66.95;100122.20;108092;1284;21992;-60
2023/02/19 07:18:04;;;;;;;4.10;2.10;;;;;;;11.21;66.75;100113.91;108058;1286;21989;-68
2023/02/19 07:20:30;;;;;;;3.20;2.00;;;;;;;11.21;66.80;100112.67;108062;1286;22167;-69
2023/02/19 07:22:56;;;;;;;4.40;2.00;;;;;;;11.26;67.02;100108.00;108054;1286;21986;-60
2023/02/19 07:25:22;;;;;;;3.50;1.60;;;;;;;11.32;66.75;100106.48;108056;1286;21996;-61
2023/02/19 07:27:48;;;;;;;3.40;1.70;;;;;;;11.37;67.15;100111.14;108050;1286;21989;-68
2023/02/19 07:30:14;;;;;;;3.20;1.70;;;;;;;11.41;67.55;100107.19;108031;1286;22025;-68
2023/02/19 07:32:41;;;;;;;2.90;1.60;;;;;;;11.48;68.04;100105.65;108042;1286;21993;-60
2023/02/19 07:35:07;;;;;;;3.30;1.70;;;;;;;11.58;68.49;100090.50;108085;1286;22443;-60
2023/02/19 07:37:35;;;;;;;4.10;1.80;;;;;;;11.69;69.04;100077.44;108067;1283;21995;-68
2023/02/19 07:40:02;;;;;;;6.80;1.60;;;;;;;11.84;70.10;100074.98;108093;1286;22201;-68
2023/02/19 07:42:43;;;;;;;2.50;1.80;;;;;;;11.98;70.15;100087.55;108052;1286;21991;-60
2023/02/19 07:45:09;;;;;;;3.90;1.60;;;;;;;12.10;69.46;100096.95;108056;1286;22000;-68
2023/02/19 07:47:35;;;;;;;4.20;2.10;;;;;;;12.19;68.59;100107.64;108307;1283;24306;-61
2023/02/19 07:50:01;;;;;;;4.60;2.10;;;;;;;12.25;68.16;100108.57;108099;1286;21992;-60
2023/02/19 07:52:27;;;;;;;2.90;1.60;;;;;;;12.27;67.82;100114.69;108085;1286;21986;-68
2023/02/19 07:54:55;;;;;;;3.40;1.70;;;;;;;12.30;67.29;100119.55;108113;1287;22000;-61
2023/02/19 07:57:21;;;;;;;4.60;2.00;;;;;;;12.29;67.31;100123.61;108123;1287;21991;-61
2023/02/19 07:59:49;;;;;;;3.80;2.10;;;;;;;12.22;67.02;100126.59;108096;1287;22024;-62
2023/02/19 08:05:04;;;;;;;6.00;1.90;;;;;;;12.16;67.44;100124.95;109054;1287;21986;-61
2023/02/19 08:07:32;;;;;;;3.80;1.90;;;;;;;12.23;68.15;100117.06;108145;1287;21984;-69
2023/02/19 08:13:18;;;;;;;6.00;2.30;;;;;;;12.28;67.81;100107.63;108093;1287;22000;-68
2023/02/19 08:15:31;;;;;;;4.90;2.50;;;;;;;12.45;68.23;100110.91;107442;1287;1002526;-62
2023/02/19 08:17:57;;;;;;;3.50;2.10;;;;;;;12.56;69.62;100110.65;108220;1286;21991;-62
2023/02/19 08:20:23;;;;;;;3.20;2.00;;;;;;;12.67;69.48;100103.70;108145;1287;22001;-69
2023/02/19 08:22:49;;;;;;;3.50;2.10;;;;;;;12.75;69.70;100099.80;108263;1287;23613;-68
2023/02/19 08:25:15;;;;;;;5.70;2.20;;;;;;;12.83;70.31;100097.66;108140;1287;21991;-68
2023/02/19 08:27:42;;;;;;;4.80;2.30;;;;;;;12.93;69.96;100092.09;108136;1287;21989;-62
2023/02/19 08:30:09;;;;;;;4.50;2.40;;;;;;;13.04;69.78;100099.56;108148;1288;21984;-69
2023/02/19 08:32:35;;;;;;;5.00;2.10;;;;;;;13.09;69.94;100101.70;107890;1285;22260;-62
2023/02/19 08:35:01;;;;;;;3.70;2.20;;;;;;;13.08;68.89;100103.31;108092;1286;21979;-63
2023/02/19 08:37:28;;;;;;;4.20;2.20;;;;;;;13.06;68.27;100108.48;108219;1286;21987;-69
2023/02/19 08:39:54;;;;;;;3.50;2.10;;;;;;;12.91;68.06;100122.45;108114;1286;23637;-62
2023/02/19 08:42:21;;;;;;;5.20;2.50;;;;;;;12.94;68.49;100121.48;108343;1281;21993;-68
2023/02/19 08:44:47;;;;;;;6.10;3.00;;;;;;;12.93;68.85;100125.02;108292;1286;23659;-62
2023/02/19 08:47:13;;;;;;;3.80;2.00;;;;;;;12.97;68.31;100129.33;108302;1286;21988;-68
2023/02/19 08:49:40;;;;;;;4.80;2.50;;;;;;;12.82;69.38;100124.06;108037;1286;21991;-62
2023/02/19 08:52:07;;;;;;;5.20;2.50;;;;;;;12.75;70.00;100117.73;108123;1287;21998;-63
2023/02/19 08:54:34;;;;;;;4.70;2.70;;;;;;;12.75;69.38;100108.95;108089;1283;22025;-68
2023/02/19 08:57:01;;;;;;;3.60;2.20;;;;;;;12.72;69.99;100101.64;108139;1286;23608;-62
2023/02/19 08:59:30;;;;;;;4.50;2.60;;;;;;;12.82;71.14;100095.92;108228;1286;21994;-62
2023/02/19 09:01:59;;;;;;;4.90;2.50;;;;;;;12.94;70.86;100092.97;108132;1286;21987;-62
2023/02/19 09:04:25;;;;;;;4.10;2.70;;;;;;;13.06;71.64;100093.50;108038;1284;21996;-63
2023/02/19 09:06:51;;;;;;;4.10;2.20;;;;;;;13.15;71.89;100091.33;107982;1283;23641;-68
2023/02/19 09:09:18;;;;;;;4.40;2.60;;;;;;;13.26;71.99;100091.91;108032;1286;21994;-63
2023/02/19 09:11:45;;;;;;;4.40;2.10;;;;;;;13.48;71.51;100091.31;108107;1286;21992;-65
2023/02/19 09:14:10;;;;;;;3.60;2.20;;;;;;;13.70;70.09;100087.31;108073;1286;21994;-65
2023/02/19 09:16:37;;;;;;;3.40;2.10;;;;;;;13.84;69.96;100093.62;108185;1286;22046;-67
2023/02/19 09:19:03;;;;;;;5.40;2.20;;;;;;;13.90;69.08;100096.97;108095;1286;21996;-67
2023/02/19 09:21:28;;;;;;;3.70;2.00;;;;;;;13.95;66.90;100106.00;108049;1286;21987;-66
2023/02/19 09:23:55;;;;;;;3.10;2.10;;;;;;;13.95;65.10;100111.98;108062;1285;21996;-67
2023/02/19 09:26:24;;;;;;;4.00;2.20;;;;;;;13.87;64.73;100118.92;108145;1285;22150;-67
2023/02/19 09:28:49;;;;;;;3.10;2.00;;;;;;;13.81;64.88;100118.22;107998;1286;21981;-66
2023/02/19 09:31:15;;;;;;;4.70;2.80;;;;;;;13.87;65.61;100107.82;108103;1285;21989;-64
2023/02/19 09:33:43;;;;;;;3.10;1.80;;;;;;;14.11;65.42;100110.96;108042;1285;21986;-62
2023/02/19 09:36:09;;;;;;;3.40;2.00;;;;;;;14.19;64.34;100114.96;108026;1285;21988;-64
2023/02/19 09:38:37;;;;;;;3.50;1.70;;;;;;;14.28;63.54;100112.21;108036;1285;22019;-67
2023/02/19 09:41:33;;;;;;;3.70;1.60;;;;;;;14.30;62.95;100109.66;107788;1278;352080;-68
2023/02/19 09:44:01;;;;;;;3.50;1.80;;;;;;;14.37;62.41;100106.45;108035;1285;22780;-63
2023/02/19 09:46:43;;;;;;;4.10;1.70;;;;;;;14.48;61.52;100110.70;107986;1285;23609;-68
2023/02/19 09:49:15;;;;;;;2.60;1.40;;;;;;;14.58;60.92;100113.20;107953;1285;21989;-66
2023/02/19 09:51:44;;;;;;;3.10;1.70;;;;;;;14.60;59.38;100117.52;108101;1285;22046;-68
2023/02/19 09:54:20;;;;;;;3.60;1.60;;;;;;;14.71;60.02;100108.52;107979;1285;22023;-62
2023/02/19 09:56:47;;;;;;;3.30;1.90;;;;;;;14.75;59.33;100110.88;108136;1285;21992;-68
2023/02/19 09:59:22;;;;;;;2.50;1.50;;;;;;;14.88;59.60;100121.92;108065;1285;22518;-68
2023/02/19 10:01:51;;;;;;;3.60;1.70;;;;;;;15.00;59.10;100122.92;108103;1286;21992;-63
2023/02/19 10:04:17;;;;;;;3.30;1.40;;;;;;;15.07;59.06;100115.80;108055;1286;23631;-64
2023/02/19 10:06:43;;;;;;;3.20;1.60;;;;;;;15.07;57.16;100107.12;108105;1286;22000;-67
2023/02/19 10:09:17;;;;;;;3.20;1.40;;;;;;;15.07;56.78;100098.11;108089;1287;21985;-65
2023/02/19 10:11:43;;;;;;;2.60;1.60;;;;;;;15.26;57.53;100096.39;108107;1283;21988;-64
2023/02/19 10:14:18;;;;;;;2.40;1.50;;;;;;;15.38;57.55;100094.19;108103;1286;22021;-63
2023/02/19 10:16:45;;;;;;;3.30;1.50;;;;;;;15.47;56.79;100093.68;108754;1286;21983;-66
2023/02/19 10:19:11;;;;;;;3.20;1.60;;;;;;;15.59;57.04;100093.41;109669;1286;22525;-67
2023/02/19 10:21:37;;;;;;;3.60;1.50;;;;;;;15.75;57.32;100092.63;108105;1286;23071;-67
2023/02/19 10:24:04;;;;;;;2.80;1.60;;;;;;;15.94;57.49;100089.43;108046;1284;21985;-66
2023/02/19 10:26:35;;;;;;;3.70;1.70;;;;;;;16.04;56.07;100093.86;108094;1285;22157;-67
2023/02/19 10:29:02;;;;;;;3.10;1.70;;;;;;;16.06;55.96;100089.52;108119;1284;22019;-64
2023/02/19 10:31:30;;;;;;;3.90;1.30;;;;;;;16.13;55.16;100096.48;108061;1285;21990;-64
2023/02/19 10:34:00;;;;;;;2.50;1.40;;;;;;;16.11;54.15;100093.75;108076;1285;23640;-67
2023/02/19 10:36:31;;;;;;;2.70;1.70;;;;;;;16.10;53.83;100088.48;108118;1285;22019;-67
2023/02/19 10:38:59;;;;;;;2.60;1.40;;;;;;;16.05;53.32;100082.99;108191;1286;22171;-63
2023/02/19 10:41:25;;;;;;;4.40;2.20;;;;;;;15.98;53.23;100073.92;108035;1286;21983;-68
2023/02/19 10:44:26;;;;;;;3.20;1.60;;;;;;;15.86;53.32;100073.65;107213;1286;1002601;-66
2023/02/19 10:46:54;;;;;;;3.20;1.60;;;;;;;15.88;54.64;100066.85;107904;1285;21993;-65
2023/02/19 10:49:29;;;;;;;3.20;1.30;;;;;;;15.98;54.15;100061.34;108074;1286;24329;-67
2023/02/19 10:51:56;;;;;;;3.00;1.40;;;;;;;16.05;52.79;100064.98;108036;1284;21986;-68
2023/02/19 10:54:28;;;;;;;2.70;1.40;;;;;;;16.15;53.22;100069.50;107974;1286;22089;-65
2023/02/19 10:57:19;;;;;;;2.80;1.40;;;;;;;16.26;53.24;100063.58;108090;1285;23644;-68
2023/02/19 10:59:50;;;;;;;;;;;;;;;16.19;52.18;100051.63;108075;1284;22010;-67
2023/02/19 11:02:18;;;;;;;4.40;1.50;;;;;;;16.24;52.53;100054.79;108221;1284;23656;-68
2023/02/19 11:05:10;;;;;;;4.00;1.90;;;;;;;16.25;51.79;100062.21;108122;1285;22003;-64
2023/02/19 11:07:41;;;;;;;2.60;1.40;;;;;;;15.91;50.62;100064.77;108062;1285;22169;-64
2023/02/19 11:10:18;;;;;;;4.00;1.90;;;;;;;15.76;51.78;100064.27;108096;1285;23748;-68
2023/02/19 11:12:47;;;;;;;2.70;1.50;;;;;;;15.79;52.17;100064.19;108118;1285;21993;-65
2023/02/19 11:15:33;;;;;;;3.50;1.90;;;;;;;15.72;51.56;100059.67;108122;1285;21983;-68
2023/02/19 11:18:12;;;;;;;3.50;1.80;;;;;;;15.74;52.58;100062.07;108110;1285;24124;-65
2023/02/19 11:20:44;;;;;;;3.40;1.80;;;;;;;15.77;52.06;100065.67;108032;1286;23650;-64
2023/02/19 11:23:14;;;;;;;3.20;1.70;;;;;;;15.81;52.24;100068.89;108107;1284;23037;-67
2023/02/19 11:25:47;;;;;;;;;;;;;;;15.80;51.45;100073.86;108129;1286;22261;-65
2023/02/19 11:28:21;;;;;;;5.20;1.40;;;;;;;15.80;51.26;100079.88;108004;1286;22036;-67
2023/02/19 11:30:48;;;;;;;3.00;1.70;;;;;;;15.74;51.21;100085.08;108032;1283;21982;-64
2023/02/19 11:33:15;;;;;;;3.40;2.10;;;;;;;15.61;51.38;100089.95;108049;1283;22449;-67
2023/02/19 11:35:59;;;;;;;3.50;1.80;;;;;;;15.53;51.67;100089.02;108068;1285;24049;-66
2023/02/19 11:38:25;;;;;;;3.40;2.10;;;;;;;15.49;51.65;100080.17;107966;1286;21992;-64
2023/02/19 11:41:11;;;;;;;3.90;2.00;;;;;;;15.47;51.97;100078.28;108004;1283;21986;-67
2023/02/19 11:43:55;;;;;;;3.80;2.10;;;;;;;15.49;51.79;100078.92;107998;1286;21987;-68
2023/02/19 11:46:30;;;;;;;6.90;2.30;;;;;;;15.30;51.11;100079.08;108058;1286;21980;-64
2023/02/19 11:49:28;;;;;;;3.90;2.00;;;;;;;15.15;50.56;100083.00;107969;1286;21991;-64
2023/02/19 11:52:19;;;;;;;3.70;2.00;;;;;;;15.13;51.31;100078.12;107976;1285;21995;-67
2023/02/19 11:54:50;;;;;;;3.40;1.80;;;;;;;15.13;51.29;100078.48;108129;1285;21991;-64
2023/02/19 11:57:38;;;;;;;2.60;1.60;;;;;;;15.08;50.93;100076.16;108114;1280;21983;-67
2023/02/19 12:00:26;;;;;;;3.60;1.60;;;;;;;15.22;51.23;100068.61;108012;1285;21985;-67
2023/02/19 12:03:01;;;;;;;3.10;1.80;;;;;;;15.31;50.61;100069.86;108080;1285;22024;-67